Terminal Aerodrome Forecast
Issued by NWS Upton, NY

Home | Current Version | Previous Version | Text Only | Print | Product List | Glossary On
Versions: 1 2 3 4 5 6 7 8 9 10 11 12 13 14 15 16 17 18 19 20 21 22 23 24 25 26 27 28 29 30 31
000
FTUS41 KOKX 240500
TAFEWR
TAF
KEWR 240536Z 2406/2512 33011KT P6SM FEW025 BKN040
     FM241000 32010KT P6SM VCSH FEW030 BKN050
     FM241400 32016G24KT P6SM SCT030 BKN050
     FM242200 32012KT P6SM SCT050
     FM250200 31008KT P6SM SCT250=

USA.gov is the U.S. government's official web portal to all federal, state and local government web resources and services.